Time;durP1;ratioP1;P1;durP2;ratioP2;P2;SDS_P1;SDS_P2;PMS_P1;PMS_P2;Temp;Humidity;BMP_temperature;BMP_pressure;BME280_temperature;BME280_humidity;BME280_pressure;Samples;Min_cycle;Max_cycle;Signal;HPM_P1;HPM_P2
2022/09/25 00:00:55;;;;;;;13.63;10.75;;;11.60;99.90;;;11.16;100.00;96860.75;5050111;28;20059;-47
2022/09/25 00:03:24;;;;;;;12.45;9.90;;;11.60;99.90;;;11.18;100.00;96858.88;5037235;28;20033;-46
2022/09/25 00:05:50;;;;;;;14.38;11.27;;;11.70;99.90;;;11.20;100.00;96854.38;5041931;28;20067;-48
2022/09/25 00:08:17;;;;;;;14.65;11.05;;;11.70;99.90;;;11.19;100.00;96846.53;5041885;28;20043;-45
2022/09/25 00:10:48;;;;;;;13.65;10.40;;;11.70;99.90;;;11.17;100.00;96851.88;5048974;28;20429;-46
2022/09/25 00:13:19;;;;;;;12.20;9.48;;;11.70;99.90;;;11.02;100.00;96831.53;5045337;28;20033;-47
2022/09/25 00:15:53;;;;;;;11.18;9.77;;;11.60;99.90;;;11.14;100.00;96862.56;5014699;28;20049;-48
2022/09/25 00:19:48;;;;;;;10.23;9.15;;;11.60;99.90;;;11.14;100.00;96864.38;5020446;28;21094;-48
2022/09/25 00:21:08;;;;;;;12.65;8.52;;;11.60;99.90;;;11.14;100.00;96859.09;5030079;28;20417;-47
2022/09/25 00:23:34;;;;;;;10.35;8.57;;;11.60;99.90;;;11.14;100.00;96852.00;5041088;28;20052;-46
2022/09/25 00:26:02;;;;;;;12.90;10.13;;;11.60;99.90;;;11.16;100.00;96852.81;5040034;28;22733;-45
2022/09/25 00:28:30;;;;;;;10.02;8.57;;;11.60;99.90;;;11.14;100.00;96844.09;5030255;28;21555;-49
2022/09/25 00:30:56;;;;;;;11.35;8.88;;;11.60;99.90;;;11.17;100.00;96849.25;5041942;28;21577;-46
2022/09/25 00:33:22;;;;;;;9.90;8.57;;;11.60;99.90;;;11.19;100.00;96850.00;5033885;28;20068;-47
2022/09/25 00:35:48;;;;;;;11.63;8.98;;;11.70;99.90;;;11.19;100.00;96850.00;5034164;28;20294;-48
2022/09/25 00:38:14;;;;;;;11.85;8.95;;;11.60;99.90;;;11.19;100.00;96841.25;5030364;28;20039;-47
2022/09/25 00:40:40;;;;;;;10.75;8.57;;;11.60;99.90;;;11.16;100.00;96838.75;5010765;28;20071;-48
2022/09/25 00:43:49;;;;;;;9.00;7.97;;;11.60;99.90;;;11.11;100.00;96839.00;5033905;28;20063;-48
2022/09/25 00:46:39;;;;;;;10.00;7.50;;;11.60;99.90;;;11.06;100.00;96836.56;5050992;28;20036;-49
2022/09/25 00:49:13;;;;;;;8.63;7.70;;;11.50;99.90;;;11.02;100.00;96827.09;5018167;28;20040;-47
2022/09/25 00:51:47;;;;;;;8.57;7.55;;;11.50;99.90;;;11.02;100.00;96818.31;5015508;28;20036;-48
2022/09/25 00:54:26;;;;;;;9.00;7.85;;;11.50;99.90;;;11.00;100.00;96820.16;5016390;28;20036;-47
2022/09/25 00:56:53;;;;;;;10.38;7.10;;;11.50;99.90;;;11.00;100.00;96820.16;5049930;28;20032;-48
2022/09/25 00:59:24;;;;;;;8.77;7.18;;;11.40;99.90;;;11.01;100.00;96820.09;5027627;28;20417;-48
2022/09/25 01:01:50;;;;;;;8.73;6.65;;;11.50;99.90;;;11.02;100.00;96815.69;5028375;28;20083;-48
2022/09/25 01:04:17;;;;;;;7.63;6.35;;;11.50;99.90;;;11.01;100.00;96812.16;5032041;28;20482;-49
2022/09/25 01:06:43;;;;;;;8.50;6.50;;;11.50;99.90;;;11.01;100.00;96809.53;5013082;28;20044;-46
2022/09/25 01:09:09;;;;;;;9.30;6.45;;;11.40;99.90;;;10.99;100.00;96810.56;5042686;28;20036;-49
2022/09/25 01:11:34;;;;;;;9.43;6.38;;;11.40;99.90;;;10.94;100.00;96807.28;5042517;28;20385;-47
2022/09/25 01:14:04;;;;;;;7.68;6.65;;;11.40;99.90;;;10.92;100.00;96801.22;5035867;28;20036;-48
2022/09/25 01:16:57;;;;;;;8.05;6.90;;;11.40;99.90;;;10.92;100.00;96807.34;5010412;28;20184;-48
2022/09/25 01:20:03;;;;;;;7.25;6.28;;;11.40;99.90;;;10.93;100.00;96811.69;5023755;28;20471;-48
2022/09/25 01:23:16;;;;;;;7.25;5.97;;;11.40;99.90;;;10.97;100.00;96807.97;5032849;28;20033;-50
2022/09/25 01:25:55;;;;;;;9.10;7.30;;;11.40;99.90;;;11.01;100.00;96809.53;5018754;28;20646;-45
2022/09/25 01:28:57;;;;;;;8.48;7.55;;;11.50;99.90;;;11.03;100.00;96809.47;5031326;28;20082;-48
2022/09/25 01:34:41;;;;;;;13.52;9.02;;;11.50;99.90;;;11.11;100.00;96807.31;5015009;28;20411;-39
2022/09/25 01:37:58;;;;;;;12.45;8.90;;;11.60;99.90;;;11.14;100.00;96808.94;5016360;28;20639;-39
2022/09/25 01:40:34;;;;;;;14.40;9.65;;;11.60;99.90;;;11.19;100.00;96820.97;5008982;28;20074;-39
2022/09/25 01:43:22;;;;;;;13.43;10.60;;;11.70;99.90;;;11.22;100.00;96825.28;5009418;28;20167;-39
2022/09/25 01:46:00;;;;;;;16.95;10.43;;;11.70;99.90;;;11.26;100.00;96824.19;5028001;28;20470;-41
2022/09/25 01:48:29;;;;;;;14.35;11.02;;;11.70;99.90;;;11.26;100.00;96824.19;5019218;28;20128;-40
2022/09/25 01:51:15;;;;;;;13.43;10.52;;;11.70;99.90;;;11.26;100.00;96819.75;5010729;28;20098;-39
2022/09/25 01:53:51;;;;;;;13.35;9.88;;;11.70;99.90;;;11.27;100.00;96824.13;5011187;28;21385;-39
2022/09/25 01:56:30;;;;;;;10.55;8.82;;;11.80;99.90;;;11.28;100.00;96822.31;5018795;28;20119;-39
2022/09/25 01:59:06;;;;;;;10.57;8.45;;;11.80;99.90;;;11.30;100.00;96822.25;5012127;28;20033;-40
2022/09/25 02:01:37;;;;;;;10.88;7.43;;;11.80;99.90;;;11.31;100.00;96819.53;5021088;28;20037;-40
2022/09/25 02:04:23;;;;;;;10.03;7.60;;;11.80;99.90;;;11.31;100.00;96808.97;5043445;28;20033;-40
2022/09/25 02:06:53;;;;;;;9.90;7.45;;;11.80;99.90;;;11.35;100.00;96814.97;5026968;28;20159;-40
2022/09/25 02:09:51;;;;;;;10.93;7.05;;;11.90;99.90;;;11.40;100.00;96816.44;5028797;28;20205;-40
2022/09/25 02:12:33;;;;;;;8.23;6.82;;;11.90;99.90;;;11.42;100.00;96811.09;5022947;28;20037;-40
2022/09/25 02:15:04;;;;;;;8.83;7.00;;;11.90;99.90;;;11.44;100.00;96807.44;5027785;28;20041;-40
2022/09/25 02:20:41;;;;;;;8.55;6.60;;;11.90;99.90;;;11.46;100.00;96813.50;5030298;28;20185;-40
2022/09/25 02:23:49;;;;;;;9.52;7.13;;;11.90;99.90;;;11.50;100.00;96819.47;5027954;28;20038;-39
2022/09/25 02:26:30;;;;;;;9.13;7.00;;;12.00;99.90;;;11.38;100.00;96785.78;4985769;28;20056;-40
2022/09/25 02:28:56;;;;;;;8.48;6.90;;;12.00;99.90;;;11.54;100.00;96818.41;5028071;28;20028;-39
2022/09/25 02:31:30;;;;;;;8.77;7.18;;;12.00;99.90;;;11.55;100.00;96817.47;5012888;28;20036;-39
2022/09/25 02:33:57;;;;;;;8.40;7.40;;;12.00;99.90;;;11.56;100.00;96813.91;5028155;28;20033;-39
2022/09/25 02:36:23;;;;;;;12.27;8.23;;;12.00;99.90;;;11.54;100.00;96799.03;5027658;28;20120;-40
2022/09/25 02:38:50;;;;;;;11.15;8.40;;;12.00;99.90;;;11.58;100.00;96812.03;5020615;28;20037;-40
2022/09/25 02:41:35;;;;;;;11.75;9.18;;;12.10;99.90;;;11.59;100.00;96807.59;5028450;28;20067;-40
2022/09/25 02:44:10;;;;;;;11.90;9.32;;;12.00;99.90;;;11.59;100.00;96810.22;5027567;28;20099;-41
2022/09/25 02:47:12;;;;;;;11.77;9.40;;;12.00;99.90;;;11.58;100.00;96803.25;5017178;28;20040;-41
2022/09/25 02:50:13;;;;;;;9.43;7.97;;;12.00;99.90;;;11.58;100.00;96808.53;5024503;28;20255;-42
2022/09/25 02:53:03;;;;;;;11.23;8.68;;;12.00;99.90;;;11.55;100.00;96803.41;5010378;28;20048;-41
2022/09/25 02:56:10;;;;;;;11.95;8.20;;;12.10;99.90;;;11.54;100.00;96801.69;5010051;28;20025;-40
2022/09/25 02:58:45;;;;;;;11.95;7.80;;;12.00;99.90;;;11.50;100.00;96795.69;5005799;28;20501;-41
2022/09/25 03:01:17;;;;;;;8.63;6.90;;;12.00;99.90;;;11.48;100.00;96799.38;5013014;28;22690;-41
2022/09/25 03:03:45;;;;;;;9.65;7.50;;;12.00;99.90;;;11.47;100.00;96806.44;5011261;28;20490;-40
2022/09/25 03:06:12;;;;;;;8.73;6.93;;;12.00;99.90;;;11.48;100.00;96802.84;5015279;28;20052;-44
2022/09/25 03:08:48;;;;;;;9.05;7.60;;;12.00;99.90;;;11.46;100.00;96807.34;5010859;28;20040;-41
2022/09/25 03:11:16;;;;;;;10.45;8.05;;;12.00;99.90;;;11.45;100.00;96798.59;5018685;28;20108;-41
2022/09/25 03:13:43;;;;;;;9.13;7.30;;;12.00;99.90;;;11.46;100.00;96802.94;5017815;28;20037;-41
2022/09/25 03:16:46;;;;;;;9.45;7.85;;;11.90;99.90;;;11.45;100.00;96795.09;5008198;28;20067;-41
2022/09/25 03:19:12;;;;;;;10.07;7.35;;;11.90;99.90;;;11.45;100.00;96808.31;5032506;28;20460;-41
2022/09/25 03:21:38;;;;;;;9.10;7.55;;;11.90;99.90;;;11.45;100.00;96808.31;5027067;28;22169;-41
2022/09/25 03:24:05;;;;;;;10.57;7.40;;;11.90;99.90;;;11.41;100.00;96798.81;5025705;28;20033;-41
2022/09/25 03:26:30;;;;;;;9.60;7.32;;;11.90;99.90;;;11.48;100.00;96812.56;5018643;28;20345;-41
2022/09/25 03:29:01;;;;;;;9.30;7.40;;;11.90;99.90;;;11.45;100.00;96800.38;5019186;28;20552;-41
2022/09/25 03:31:28;;;;;;;9.13;7.35;;;11.90;99.90;;;11.51;100.00;96815.06;5022401;28;20054;-41
2022/09/25 03:33:55;;;;;;;9.40;7.60;;;12.00;99.90;;;11.53;100.00;96816.69;5020591;28;20090;-41
2022/09/25 03:36:24;;;;;;;9.02;7.40;;;12.00;99.90;;;11.55;100.00;96813.97;5016654;28;20036;-41
2022/09/25 03:38:56;;;;;;;11.10;7.93;;;12.00;99.90;;;11.56;100.00;96810.41;5020196;28;20093;-41
2022/09/25 03:41:22;;;;;;;10.20;8.18;;;12.00;99.90;;;11.58;100.00;96817.31;5026532;28;20597;-40
2022/09/25 03:43:50;;;;;;;8.65;7.28;;;12.00;99.90;;;11.58;100.00;96813.81;5023183;28;20033;-40
2022/09/25 03:46:20;;;;;;;9.23;6.97;;;12.00;99.90;;;11.60;100.00;96809.31;5013902;28;20719;-45
2022/09/25 03:48:46;;;;;;;9.57;7.35;;;12.00;99.90;;;11.60;100.00;96804.88;5024971;28;20094;-40
2022/09/25 03:51:12;;;;;;;11.48;7.50;;;12.00;99.90;;;11.59;100.00;96797.03;5027608;28;20415;-41
2022/09/25 03:53:38;;;;;;;8.77;7.50;;;12.00;99.90;;;11.62;100.00;96800.38;5016174;28;20075;-40
2022/09/25 03:56:10;;;;;;;10.57;7.78;;;12.10;99.90;;;11.63;100.00;96796.81;5012704;28;20128;-39
2022/09/25 03:58:35;;;;;;;10.18;7.15;;;12.10;99.90;;;11.64;100.00;96792.38;5018026;28;20059;-40
2022/09/25 04:01:01;;;;;;;12.05;8.18;;;12.10;99.90;;;11.61;100.00;96798.69;5017015;28;20149;-40
2022/09/25 04:03:29;;;;;;;8.88;7.35;;;12.10;99.90;;;11.57;100.00;96791.81;5023231;28;20123;-40
2022/09/25 04:05:57;;;;;;;9.77;7.57;;;12.10;99.90;;;11.53;100.00;96790.28;5023613;28;20025;-41
2022/09/25 04:08:25;;;;;;;11.30;7.80;;;12.00;99.90;;;11.49;100.00;96786.09;5018912;28;20398;-40
2022/09/25 04:10:58;;;;;;;10.02;7.50;;;12.00;99.90;;;11.45;100.00;96789.81;5004336;28;20021;-40
2022/09/25 04:13:25;;;;;;;11.45;8.82;;;11.90;99.90;;;11.40;100.00;96791.84;5014108;28;20033;-41
2022/09/25 04:15:50;;;;;;;8.07;6.75;;;11.90;99.90;;;11.32;100.00;96786.91;5018568;28;20088;-40
2022/09/25 04:18:17;;;;;;;10.15;7.40;;;11.90;99.90;;;11.36;100.00;96798.19;5011651;28;20474;-40
2022/09/25 04:20:43;;;;;;;9.13;6.78;;;11.80;99.90;;;11.37;100.00;96800.75;5015588;28;20454;-40
2022/09/25 04:23:10;;;;;;;11.13;8.10;;;11.80;99.90;;;11.38;100.00;96806.91;5019285;28;20047;-40
2022/09/25 04:25:36;;;;;;;9.30;7.53;;;11.80;99.90;;;11.39;100.00;96801.53;5017769;28;20043;-40
2022/09/25 04:28:01;;;;;;;9.82;7.72;;;11.80;99.90;;;11.38;100.00;96798.97;5017836;28;20064;-40
2022/09/25 04:30:28;;;;;;;9.40;6.95;;;11.90;99.90;;;11.38;100.00;96798.97;5012103;28;20055;-41
2022/09/25 04:35:40;;;;;;;9.05;7.43;;;11.80;99.90;;;11.37;100.00;96805.19;5000797;28;20203;-40
2022/09/25 04:38:06;;;;;;;10.68;7.57;;;11.90;99.90;;;11.33;100.00;96804.47;5014471;28;20486;-40
2022/09/25 04:40:32;;;;;;;9.90;8.32;;;11.80;99.90;;;11.35;100.00;96801.75;5011768;28;20037;-41
2022/09/25 04:43:00;;;;;;;9.98;7.60;;;11.80;99.90;;;11.34;100.00;96803.56;5016808;28;20559;-41
2022/09/25 04:45:27;;;;;;;8.98;7.32;;;11.90;99.90;;;11.36;100.00;96806.97;5013997;28;20099;-40
2022/09/25 04:47:54;;;;;;;9.35;7.22;;;11.80;99.90;;;11.35;100.00;96810.53;5012353;28;20080;-40
2022/09/25 04:50:21;;;;;;;9.45;7.65;;;11.80;99.90;;;11.38;100.00;96813.03;5009615;28;21121;-42
2022/09/25 04:52:50;;;;;;;10.50;8.27;;;11.90;99.90;;;11.40;100.00;96807.69;5007422;28;20501;-41
2022/09/25 04:55:23;;;;;;;10.10;8.13;;;11.90;99.90;;;11.39;100.00;96804.16;5012624;28;20092;-41
2022/09/25 04:57:56;;;;;;;12.07;9.48;;;11.90;99.90;;;11.40;100.00;96799.75;5015349;28;20524;-41
2022/09/25 05:00:25;;;;;;;11.45;8.90;;;11.90;99.90;;;11.38;100.00;96802.47;5017837;28;20037;-41
2022/09/25 05:02:51;;;;;;;12.88;9.55;;;11.80;99.90;;;11.34;100.00;96789.50;5012073;28;20028;-41
2022/09/25 05:05:18;;;;;;;12.95;9.95;;;11.80;99.90;;;11.34;100.00;96800.03;5019504;28;20027;-40
2022/09/25 05:07:55;;;;;;;11.43;9.00;;;11.80;99.90;;;11.31;100.00;96794.94;5018355;28;20029;-40
2022/09/25 05:10:29;;;;;;;10.68;8.43;;;11.80;99.90;;;11.27;100.00;96803.00;5022338;28;20310;-40
2022/09/25 05:13:00;;;;;;;10.43;8.50;;;11.80;99.90;;;11.25;100.00;96802.22;5025176;28;20036;-40
2022/09/25 05:15:28;;;;;;;9.73;7.80;;;11.70;99.90;;;11.23;100.00;96800.56;5020063;28;20047;-40
2022/09/25 05:18:06;;;;;;;12.20;9.05;;;11.70;99.90;;;11.24;100.00;96808.41;5014915;28;20044;-40
2022/09/25 05:20:34;;;;;;;10.80;9.07;;;11.70;99.90;;;11.25;100.00;96801.34;5019460;28;20045;-40
2022/09/25 05:23:02;;;;;;;11.70;8.70;;;11.70;99.90;;;11.25;100.00;96804.88;5022944;28;20334;-41
2022/09/25 05:25:27;;;;;;;11.13;8.70;;;11.70;99.90;;;11.22;100.00;96799.72;5023352;28;20025;-41
2022/09/25 05:27:57;;;;;;;10.82;8.27;;;11.70;99.90;;;11.25;100.00;96809.25;5019680;28;20025;-40
2022/09/25 05:30:24;;;;;;;11.18;8.75;;;11.70;99.90;;;11.27;100.00;96807.44;5028607;28;20632;-40
2022/09/25 05:32:50;;;;;;;11.93;8.70;;;11.70;99.90;;;11.27;100.00;96813.56;5027506;28;20036;-40
2022/09/25 05:35:21;;;;;;;12.60;9.48;;;11.70;99.90;;;11.32;100.00;96804.56;5026918;28;20038;-41
2022/09/25 05:37:47;;;;;;;13.18;9.38;;;11.80;99.90;;;11.34;100.00;96808.84;5016465;28;20098;-40
2022/09/25 05:40:17;;;;;;;9.43;7.97;;;11.80;99.90;;;11.36;100.00;96806.97;5019125;28;20036;-40
2022/09/25 05:42:43;;;;;;;11.55;9.07;;;11.80;99.90;;;11.39;100.00;96809.44;5020297;28;20033;-40
2022/09/25 05:45:13;;;;;;;12.02;9.20;;;11.80;99.90;;;11.42;100.00;96813.72;5020030;28;20036;-40
2022/09/25 05:47:39;;;;;;;9.93;8.45;;;11.80;99.90;;;11.45;100.00;96816.22;5010785;28;20437;-40
2022/09/25 05:50:08;;;;;;;11.05;8.73;;;11.90;99.90;;;11.46;100.00;96808.22;5016902;28;20044;-40
2022/09/25 05:52:35;;;;;;;12.32;9.20;;;11.90;99.90;;;11.51;100.00;96807.16;5018205;28;20502;-42
2022/09/25 05:55:02;;;;;;;10.55;9.18;;;12.00;99.90;;;11.56;100.00;96808.63;5027105;28;20089;-41
2022/09/25 05:57:34;;;;;;;10.60;8.80;;;12.00;99.90;;;11.60;100.00;96815.44;5012340;28;20104;-40
2022/09/25 06:00:00;;;;;;;11.63;8.65;;;12.00;99.90;;;11.63;100.00;96814.44;5020595;28;20196;-40
2022/09/25 06:02:26;;;;;;;10.63;8.13;;;12.10;99.90;;;11.64;100.00;96810.88;5021815;28;20294;-40
2022/09/25 06:04:52;;;;;;;13.10;8.90;;;12.10;99.90;;;11.68;100.00;96816.84;5017708;28;20040;-41
2022/09/25 06:07:18;;;;;;;11.15;9.60;;;12.10;99.90;;;11.72;100.00;96818.38;5021343;28;20025;-41
2022/09/25 06:09:44;;;;;;;14.32;9.48;;;12.20;99.90;;;11.76;100.00;96819.97;5012280;28;20307;-40
2022/09/25 06:12:10;;;;;;;14.50;9.05;;;12.20;99.90;;;11.80;100.00;96819.72;5018440;28;20477;-40
2022/09/25 06:14:36;;;;;;;12.70;9.18;;;12.20;99.90;;;11.85;100.00;96815.06;5018063;28;20025;-41
2022/09/25 06:17:02;;;;;;;12.00;8.30;;;12.30;99.90;;;11.91;100.00;96818.34;5016269;28;20583;-40
2022/09/25 06:19:30;;;;;;;11.13;9.25;;;12.40;99.90;;;11.96;100.00;96821.59;5015739;28;20051;-41
2022/09/25 06:21:56;;;;;;;10.98;8.77;;;12.40;99.90;;;12.02;100.00;96822.16;5020488;28;20036;-39
2022/09/25 06:24:23;;;;;;;12.10;9.52;;;12.50;99.90;;;12.05;100.00;96813.19;5017900;28;20029;-40
2022/09/25 06:26:48;;;;;;;13.25;9.40;;;12.50;99.90;;;12.14;100.00;96815.34;5016530;28;20171;-40
2022/09/25 06:29:14;;;;;;;11.73;9.35;;;12.60;99.90;;;12.20;100.00;96816.81;5016994;28;20033;-40
2022/09/25 06:31:40;;;;;;;12.05;9.65;;;12.60;99.90;;;12.21;100.00;96807.97;5014619;28;20398;-40
2022/09/25 06:34:08;;;;;;;11.77;9.52;;;12.70;99.90;;;12.29;100.00;96819.00;5023955;28;20489;-40
2022/09/25 06:36:33;;;;;;;12.82;10.00;;;12.70;99.90;;;12.33;100.00;96812.59;5015427;28;20047;-41
2022/09/25 06:38:59;;;;;;;11.25;9.30;;;12.80;99.90;;;12.36;100.00;96817.75;5008170;28;20041;-41
2022/09/25 06:41:25;;;;;;;11.27;9.25;;;12.80;99.90;;;12.40;100.00;96819.28;5010687;28;20029;-40
2022/09/25 06:43:51;;;;;;;13.57;9.90;;;12.90;99.90;;;12.44;100.00;96813.81;5017526;28;20039;-41
2022/09/25 06:46:18;;;;;;;14.40;10.18;;;12.90;99.90;;;12.47;100.00;96816.28;5017985;28;20036;-40
2022/09/25 06:48:56;;;;;;;11.15;8.73;;;12.90;99.90;;;12.49;100.00;96814.41;5011948;28;20143;-40
2022/09/25 06:51:24;;;;;;;12.50;9.32;;;13.00;99.90;;;12.50;100.00;96816.97;5009804;28;20033;-41
2022/09/25 06:53:53;;;;;;;11.45;9.75;;;13.00;99.90;;;12.51;100.00;96813.41;5008494;28;20075;-41
2022/09/25 06:56:19;;;;;;;11.90;9.35;;;13.00;99.90;;;12.56;100.00;96818.44;5000916;28;20352;-41
2022/09/25 06:58:45;;;;;;;14.70;11.18;;;13.00;99.90;;;12.59;100.00;96816.47;5012479;28;20123;-41
2022/09/25 07:01:12;;;;;;;11.52;9.13;;;13.10;99.90;;;12.64;100.00;96823.31;5011994;28;20151;-41
2022/09/25 07:03:44;;;;;;;12.50;9.73;;;13.10;99.90;;;12.69;100.00;96824.78;5009391;28;20456;-41
2022/09/25 07:06:17;;;;;;;10.32;8.48;;;13.20;99.90;;;12.75;100.00;96823.59;5023517;28;20040;-41
2022/09/25 07:08:44;;;;;;;14.07;10.32;;;13.20;99.90;;;12.80;100.00;96826.84;5014190;28;20037;-42
2022/09/25 07:11:13;;;;;;;11.48;9.32;;;13.20;99.90;;;12.81;100.00;96828.53;5017507;28;20195;-41
2022/09/25 07:13:40;;;;;;;13.95;10.38;;;13.30;99.90;;;12.80;100.00;96830.31;5024907;28;20060;-41
2022/09/25 07:16:11;;;;;;;12.57;10.00;;;13.20;99.90;;;12.85;100.00;96832.72;5016621;28;20032;-41
2022/09/25 07:18:37;;;;;;;17.45;11.90;;;13.30;99.90;;;12.88;100.00;96835.19;5019065;28;20092;-41
2022/09/25 07:21:23;;;;;;;12.80;10.00;;;13.30;99.90;;;12.92;100.00;96828.81;5026131;28;20045;-41
2022/09/25 07:23:50;;;;;;;10.95;9.13;;;13.30;99.90;;;12.95;100.00;96830.41;5029876;28;21295;-43
2022/09/25 07:26:21;;;;;;;14.27;10.57;;;13.40;99.90;;;12.94;100.00;96826.09;5013330;28;20032;-41
2022/09/25 07:28:59;;;;;;;14.93;10.77;;;13.40;99.90;;;12.89;100.00;96826.31;5007795;28;20807;-40
2022/09/25 07:31:31;;;;;;;12.15;9.25;;;13.40;99.90;;;12.96;100.00;96829.50;5011961;28;20036;-41
2022/09/25 07:34:01;;;;;;;11.60;8.43;;;13.40;99.90;;;13.02;100.00;96821.19;5068787;22;20071;-45
2022/09/25 07:36:27;;;;;;;12.43;8.85;;;13.40;99.90;;;13.10;100.00;96828.69;5055342;28;20035;-48
2022/09/25 07:38:53;;;;;;;13.52;9.55;;;13.50;99.90;;;13.12;100.00;96825.03;5041220;28;20047;-47
2022/09/25 07:41:23;;;;;;;11.77;8.60;;;13.60;99.90;;;13.21;100.00;96836.91;5044276;28;20649;-46
2022/09/25 07:43:57;;;;;;;11.75;8.23;;;13.60;99.90;;;13.28;100.00;96834.75;5061221;28;20258;-45
2022/09/25 07:46:27;;;;;;;9.38;6.85;;;13.70;99.90;;;13.35;100.00;96839.66;5053490;28;20922;-45
2022/09/25 07:48:53;;;;;;;9.43;7.47;;;13.70;99.90;;;13.41;100.00;96838.47;5060050;28;20035;-44
2022/09/25 07:51:23;;;;;;;10.73;8.80;;;13.80;99.90;;;13.37;100.00;96839.59;5056275;28;20036;-45
2022/09/25 07:53:49;;;;;;;10.43;8.38;;;13.80;99.90;;;13.36;100.00;96835.22;5059148;28;20562;-46
2022/09/25 07:56:16;;;;;;;11.73;8.32;;;13.80;99.90;;;13.31;100.00;96840.75;5054357;28;20044;-49
2022/09/25 07:58:42;;;;;;;12.77;8.63;;;13.70;99.90;;;13.33;100.00;96845.97;5049806;28;20020;-47
2022/09/25 08:01:12;;;;;;;8.27;6.97;;;13.70;99.90;;;13.36;100.00;96843.16;5055158;28;20048;-46
2022/09/25 08:03:37;;;;;;;9.23;7.50;;;13.80;99.90;;;13.44;100.00;96843.59;5051399;28;20541;-48
2022/09/25 08:06:08;;;;;;;8.35;6.65;;;13.90;99.90;;;13.54;100.00;96842.09;5049761;28;20039;-44
2022/09/25 08:08:34;;;;;;;10.10;7.38;;;14.00;99.90;;;13.63;100.00;96839.88;5049583;28;20032;-45
2022/09/25 08:11:06;;;;;;;9.43;7.78;;;14.10;99.90;;;13.75;100.00;96844.44;5055745;28;20064;-46
2022/09/25 08:13:32;;;;;;;10.15;8.10;;;14.20;99.90;;;13.81;100.00;96851.19;5054820;28;20213;-47
2022/09/25 08:16:01;;;;;;;7.88;6.85;;;14.30;99.90;;;13.86;100.00;96849.13;5045012;28;20497;-45
2022/09/25 08:18:27;;;;;;;9.85;7.40;;;14.30;99.90;;;13.87;100.00;96851.69;5051419;28;20112;-43
2022/09/25 08:20:53;;;;;;;8.15;5.88;;;14.30;99.90;;;13.83;100.00;96852.78;5050625;28;20206;-48
2022/09/25 08:23:18;;;;;;;8.25;5.80;;;14.30;99.90;;;13.77;100.00;96842.56;5056823;28;20053;-46
2022/09/25 08:25:48;;;;;;;9.13;6.07;;;14.20;99.90;;;13.66;100.00;96850.28;5054060;28;20594;-46
2022/09/25 08:28:14;;;;;;;8.23;5.57;;;14.10;99.90;;;13.53;100.00;96837.75;5055768;28;20225;-47
2022/09/25 08:30:42;;;;;;;7.57;5.78;;;14.00;99.90;;;13.55;100.00;96842.97;5049199;28;20248;-47
2022/09/25 08:33:12;;;;;;;6.10;5.13;;;14.00;99.90;;;13.54;100.00;96846.53;5056155;28;20123;-46
2022/09/25 08:35:39;;;;;;;6.22;5.38;;;13.90;99.90;;;13.54;100.00;96846.53;5060696;28;20034;-41
2022/09/25 08:38:10;;;;;;;6.70;4.80;;;14.00;99.90;;;13.53;100.00;96845.69;5057812;28;20512;-40
2022/09/25 08:40:45;;;;;;;5.55;4.90;;;13.90;99.90;;;13.53;100.00;96844.81;5066641;28;20114;-40
2022/09/25 08:43:20;;;;;;;7.28;5.28;;;13.90;99.90;;;13.52;100.00;96843.97;5059458;28;20036;-41
2022/09/25 08:49:02;;;;;;;7.10;5.55;;;13.90;99.90;;;13.49;100.00;96838.00;5051036;28;20097;-40
2022/09/25 08:51:31;;;;;;;10.23;6.28;;;13.90;99.90;;;13.48;100.00;96831.88;5052942;28;20037;-40
2022/09/25 08:53:58;;;;;;;8.20;6.80;;;13.90;99.90;;;13.44;100.00;96833.00;5054341;28;20136;-41
2022/09/25 08:56:27;;;;;;;7.97;6.30;;;13.90;99.90;;;13.45;100.00;96837.31;5058583;28;20492;-40
2022/09/25 08:59:02;;;;;;;10.23;6.47;;;13.90;99.90;;;13.54;100.00;96828.00;5062271;28;20116;-41
2022/09/25 09:01:41;;;;;;;7.18;5.60;;;13.90;99.90;;;13.73;100.00;96835.75;5054879;28;20041;-41
2022/09/25 09:04:35;;;;;;;6.50;5.82;;;14.10;99.90;;;13.99;100.00;96825.38;5038758;28;20040;-40
2022/09/25 09:07:14;;;;;;;8.45;5.30;;;14.40;99.90;;;14.31;100.00;96821.63;5060304;28;20039;-41
2022/09/25 09:09:51;;;;;;;9.93;6.45;;;14.70;99.90;;;14.57;100.00;96821.84;5050025;28;20610;-42
2022/09/25 09:12:34;;;;;;;8.50;5.85;;;15.00;99.90;;;14.88;100.00;96825.25;5060568;28;20027;-41
2022/09/25 09:15:35;;;;;;;9.10;6.93;;;15.30;99.90;;;15.08;100.00;96831.94;5066626;28;20035;-41
2022/09/25 09:18:20;;;;;;;9.68;7.07;;;15.50;99.90;;;15.20;100.00;96825.84;5059890;28;20062;-41
2022/09/25 09:21:27;;;;;;;10.38;6.50;;;15.70;99.90;;;15.30;100.00;96838.53;5038124;28;20036;-41
2022/09/25 09:24:20;;;;;;;7.55;6.10;;;15.80;99.90;;;15.51;100.00;96833.63;5042318;28;20131;-46
2022/09/25 09:27:07;;;;;;;;;;;16.00;99.90;;;15.68;100.00;96829.84;5054111;28;20505;-39
2022/09/25 09:30:07;;;;;;;7.43;5.05;;;16.10;99.90;;;15.84;100.00;96835.84;5054171;28;19920;-39
2022/09/25 09:32:52;;;;;;;4.35;3.75;;;16.20;99.90;;;15.95;100.00;96824.50;5056603;28;20040;-40
2022/09/25 09:35:50;;;;;;;5.53;4.35;;;16.30;99.90;;;15.84;100.00;96812.81;5051630;28;20071;-45
2022/09/25 09:38:54;;;;;;;4.35;3.85;;;16.30;99.90;;;15.72;100.00;96826.88;5058818;28;20032;-45
2022/09/25 09:41:53;;;;;;;7.13;5.10;;;16.20;99.90;;;15.60;100.00;96817.91;5054628;28;20043;-43
2022/09/25 09:44:59;;;;;;;5.35;3.95;;;16.00;99.90;;;15.56;100.00;96820.84;5062106;28;20622;-41
2022/09/25 09:47:53;;;;;;;5.13;4.22;;;15.90;99.90;;;15.55;100.00;96817.34;5063770;28;20079;-45
2022/09/25 09:50:29;;;;;;;5.22;4.40;;;15.90;99.90;;;15.46;100.00;96820.63;5050360;28;20405;-44
2022/09/25 09:53:02;;;;;;;7.32;5.72;;;15.80;99.90;;;15.21;100.00;96827.53;5054794;28;20025;-44
2022/09/25 09:55:44;;;;;;;7.47;5.45;;;15.60;99.90;;;15.06;100.00;96828.53;5053906;28;20766;-42
2022/09/25 09:58:47;;;;;;;7.53;5.60;;;15.50;99.90;;;14.88;100.00;96823.44;5051838;28;20032;-44
2022/09/25 10:01:18;;;;;;;7.97;5.72;;;15.30;99.90;;;14.66;100.00;96809.81;5063579;28;20107;-41
2022/09/25 10:03:47;;;;;;;5.95;5.00;;;15.20;99.90;;;14.72;100.00;96827.19;5053487;28;20039;-43
2022/09/25 10:06:16;;;;;;;8.40;5.22;;;15.10;99.90;;;14.62;100.00;96822.41;5043500;28;20488;-43
2022/09/25 10:08:42;;;;;;;7.43;5.00;;;15.00;99.90;;;14.64;100.00;96819.66;5053804;28;20059;-44
2022/09/25 10:11:18;;;;;;;7.93;5.30;;;15.00;99.90;;;14.73;100.00;96821.75;5049751;28;20225;-43
2022/09/25 10:13:45;;;;;;;9.15;5.93;;;15.10;99.90;;;14.81;100.00;96815.97;5045456;28;20032;-42
2022/09/25 10:16:15;;;;;;;8.98;6.07;;;15.20;99.90;;;14.98;100.00;96815.72;5046548;28;20024;-43
2022/09/25 10:18:55;;;;;;;8.68;6.60;;;15.40;99.90;;;15.22;100.00;96818.63;5048385;28;20051;-42
2022/09/25 10:21:30;;;;;;;9.93;6.95;;;15.60;99.90;;;15.49;100.00;96812.47;5049901;28;20139;-43
2022/09/25 10:24:02;;;;;;;8.25;6.00;;;15.90;99.90;;;15.76;100.00;96811.63;5048971;28;20773;-43
2022/09/25 10:26:37;;;;;;;11.00;6.53;;;16.20;99.90;;;16.10;100.00;96815.50;5045432;28;20028;-45
2022/09/25 10:29:06;;;;;;;9.95;6.75;;;16.40;99.90;;;16.19;100.00;96812.19;5057094;28;20075;-44
2022/09/25 10:31:37;;;;;;;7.43;5.55;;;16.60;99.90;;;16.29;100.00;96809.72;5045590;28;21561;-42
2022/09/25 10:34:18;;;;;;;7.70;6.10;;;16.60;99.90;;;16.08;100.00;96812.09;5059346;28;20124;-45
2022/09/25 10:36:47;;;;;;;7.45;6.22;;;16.50;99.90;;;15.83;100.00;96819.06;5066436;28;20039;-42
2022/09/25 10:39:38;;;;;;;8.10;5.63;;;16.20;99.90;;;15.60;100.00;96815.25;5058839;28;20048;-43
2022/09/25 10:42:31;;;;;;;5.95;4.72;;;16.00;99.90;;;15.31;100.00;96819.84;5057780;28;22961;-42
2022/09/25 10:44:57;;;;;;;9.02;6.15;;;15.70;99.90;;;15.01;100.00;96820.84;5049153;28;20047;-44